Time;durP1;ratioP1;P1;durP2;ratioP2;P2;SDS_P1;SDS_P2;PMS_P1;PMS_P2;Temp;Humidity;BMP_temperature;BMP_pressure;BME280_temperature;BME280_humidity;BME280_pressure;Samples;Min_cycle;Max_cycle;Signal;HPM_P1;HPM_P2
2024/01/09 00:00:16;;;;;;;6.30;3.92;;;-2.50;99.90;;;;;;5026912;28;20077;-63
2024/01/09 00:02:42;;;;;;;7.82;4.43;;;-2.50;99.90;;;;;;5027172;28;20064;-64
2024/01/09 00:05:08;;;;;;;7.03;4.33;;;-2.60;99.90;;;;;;5023628;28;20532;-64
2024/01/09 00:07:33;;;;;;;6.60;4.30;;;-2.60;99.90;;;;;;5019094;28;20400;-64
2024/01/09 00:09:59;;;;;;;4.47;3.73;;;-2.60;99.90;;;;;;5018249;28;20240;-64
2024/01/09 00:12:25;;;;;;;5.55;3.30;;;-2.60;99.90;;;;;;5022294;28;20406;-64
2024/01/09 00:14:50;;;;;;;7.17;4.00;;;-2.60;99.90;;;;;;5022946;28;20503;-64
2024/01/09 00:17:16;;;;;;;6.53;3.47;;;-2.70;99.90;;;;;;5022672;28;20044;-63
2024/01/09 00:19:42;;;;;;;5.30;3.97;;;-2.60;99.90;;;;;;5022007;28;20073;-64
2024/01/09 00:22:07;;;;;;;9.03;3.80;;;-2.70;99.90;;;;;;5024896;28;20136;-64
2024/01/09 00:24:33;;;;;;;6.80;3.53;;;-2.70;99.90;;;;;;5025863;28;20033;-62
2024/01/09 00:26:58;;;;;;;5.80;4.27;;;-2.70;99.90;;;;;;5026615;28;20510;-62
2024/01/09 00:29:24;;;;;;;8.03;4.93;;;-2.70;99.90;;;;;;5031775;28;20047;-64
2024/01/09 00:31:50;;;;;;;8.73;4.33;;;-2.70;99.90;;;;;;5031391;28;20049;-64
2024/01/09 00:34:15;;;;;;;6.33;3.70;;;-2.70;99.90;;;;;;5030804;28;20076;-65
2024/01/09 00:36:44;;;;;;;6.53;4.25;;;-2.80;99.90;;;;;;5025443;28;20037;-63
2024/01/09 00:39:11;;;;;;;5.80;3.40;;;-2.80;99.90;;;;;;5026227;28;20444;-64
2024/01/09 00:41:36;;;;;;;;;;;-2.80;99.90;;;;;;5023661;28;20100;-63
2024/01/09 00:44:02;;;;;;;4.35;3.25;;;-2.80;99.90;;;;;;5016934;28;20362;-64
2024/01/09 00:46:28;;;;;;;6.20;3.50;;;-2.80;99.90;;;;;;5017447;28;20041;-64
2024/01/09 00:48:54;;;;;;;7.00;3.78;;;-2.80;99.90;;;;;;5022654;28;20276;-61
2024/01/09 00:51:20;;;;;;;5.65;3.72;;;-2.90;99.90;;;;;;5023339;28;20042;-63
2024/01/09 00:53:46;;;;;;;7.17;3.90;;;-2.90;99.90;;;;;;5020648;28;20053;-64
2024/01/09 00:56:11;;;;;;;7.88;4.57;;;-2.90;99.90;;;;;;5023315;28;20461;-63
2024/01/09 00:58:37;;;;;;;10.87;4.13;;;-2.90;99.90;;;;;;5023710;28;20508;-64
2024/01/09 01:01:03;;;;;;;5.77;3.27;;;-2.90;99.90;;;;;;5025927;28;20041;-64
2024/01/09 01:03:29;;;;;;;6.50;3.47;;;-2.90;99.90;;;;;;5021963;28;20367;-64
2024/01/09 01:05:55;;;;;;;6.28;3.67;;;-3.00;99.90;;;;;;5027078;28;20191;-64
2024/01/09 01:08:21;;;;;;;12.75;4.55;;;-3.00;99.90;;;;;;5024268;28;20430;-62
2024/01/09 01:10:47;;;;;;;6.80;3.80;;;-3.00;99.90;;;;;;5023054;28;20096;-62
2024/01/09 01:13:13;;;;;;;;;;;-3.00;99.90;;;;;;5020051;28;20048;-64
2024/01/09 01:15:39;;;;;;;5.32;3.42;;;-3.00;99.90;;;;;;5025108;28;19917;-64
2024/01/09 01:18:04;;;;;;;5.03;3.40;;;-3.00;99.90;;;;;;5023251;28;20049;-65
2024/01/09 01:20:30;;;;;;;4.25;3.35;;;-3.00;99.90;;;;;;5021688;28;20041;-61
2024/01/09 01:22:56;;;;;;;6.00;4.10;;;-3.00;99.90;;;;;;5020141;28;20041;-64
2024/01/09 01:25:21;;;;;;;6.87;4.20;;;-3.10;99.90;;;;;;5017408;28;20038;-64
2024/01/09 01:27:47;;;;;;;6.40;3.90;;;-3.10;99.90;;;;;;5023836;28;20287;-63
2024/01/09 01:30:13;;;;;;;7.90;3.63;;;-3.10;99.90;;;;;;5023693;28;20164;-64
2024/01/09 01:32:39;;;;;;;6.13;3.43;;;-3.10;99.90;;;;;;5023742;28;20034;-64
2024/01/09 01:35:05;;;;;;;7.38;4.05;;;-3.10;99.90;;;;;;5020890;28;20284;-64
2024/01/09 01:37:30;;;;;;;6.50;3.13;;;-3.10;99.90;;;;;;5021141;28;20029;-61
2024/01/09 01:39:56;;;;;;;5.13;3.58;;;-3.20;99.90;;;;;;5020854;28;20608;-63
2024/01/09 01:42:22;;;;;;;11.03;4.27;;;-3.20;99.90;;;;;;5023944;28;20045;-64
2024/01/09 01:44:48;;;;;;;8.10;3.70;;;-3.20;99.90;;;;;;5023562;28;20269;-64
2024/01/09 01:47:14;;;;;;;8.15;3.55;;;-3.20;99.90;;;;;;5021258;28;20037;-62
2024/01/09 01:49:40;;;;;;;5.75;3.78;;;-3.20;99.90;;;;;;5024743;28;20091;-64
2024/01/09 01:52:07;;;;;;;4.78;3.33;;;-3.20;99.90;;;;;;5024009;28;20406;-67
2024/01/09 01:54:35;;;;;;;7.53;3.95;;;-3.20;99.90;;;;;;5025918;28;20047;-63
2024/01/09 01:57:03;;;;;;;7.32;3.92;;;-3.20;99.90;;;;;;5023318;28;20039;-63
2024/01/09 01:59:32;;;;;;;7.50;3.28;;;-3.30;99.90;;;;;;5022856;28;20048;-62
2024/01/09 02:01:59;;;;;;;5.70;3.67;;;-3.30;99.90;;;;;;5017167;28;20120;-62
2024/01/09 02:04:25;;;;;;;4.85;3.45;;;-3.30;99.90;;;;;;5022967;28;20095;-64
2024/01/09 02:06:51;;;;;;;5.05;3.13;;;-3.30;99.90;;;;;;5019825;28;20050;-65
2024/01/09 02:09:18;;;;;;;5.53;3.17;;;-3.30;99.90;;;;;;5024388;28;20128;-64
2024/01/09 02:11:46;;;;;;;5.78;4.00;;;-3.30;99.90;;;;;;5035057;28;20041;-64
2024/01/09 02:14:12;;;;;;;6.40;3.50;;;-3.30;99.90;;;;;;5020799;28;20037;-62
2024/01/09 02:16:37;;;;;;;5.30;3.67;;;-3.40;99.90;;;;;;5018489;28;20041;-64
2024/01/09 02:19:03;;;;;;;3.50;2.83;;;-3.40;99.90;;;;;;5018171;28;20125;-65
2024/01/09 02:21:29;;;;;;;3.83;3.20;;;-3.40;99.90;;;;;;5023202;28;20285;-65
2024/01/09 02:23:55;;;;;;;5.25;3.53;;;-3.40;99.90;;;;;;5020184;28;20073;-64
2024/01/09 02:26:24;;;;;;;3.85;2.85;;;-3.40;99.90;;;;;;5024010;28;20531;-64
2024/01/09 02:28:56;;;;;;;5.00;3.42;;;-3.40;99.90;;;;;;5022163;28;20045;-64
2024/01/09 02:31:22;;;;;;;3.75;2.75;;;-3.40;99.90;;;;;;5024506;28;20043;-64
2024/01/09 02:33:47;;;;;;;4.40;2.97;;;-3.40;99.90;;;;;;5028605;28;20109;-64
2024/01/09 02:36:13;;;;;;;4.67;3.70;;;-3.50;99.90;;;;;;5029469;28;20030;-66
2024/01/09 02:38:39;;;;;;;7.80;3.97;;;-3.50;99.90;;;;;;5041103;28;20168;-65
2024/01/09 02:41:05;;;;;;;6.00;2.80;;;-3.50;99.90;;;;;;5021007;28;20124;-64
2024/01/09 02:43:31;;;;;;;4.38;2.88;;;-3.50;99.90;;;;;;5022620;28;20076;-65
2024/01/09 02:45:56;;;;;;;7.83;3.40;;;-3.50;99.90;;;;;;5019385;28;20108;-63
2024/01/09 02:48:22;;;;;;;4.97;2.77;;;-3.50;99.90;;;;;;5023605;28;20339;-65
2024/01/09 02:50:48;;;;;;;5.97;3.43;;;-3.50;99.90;;;;;;5023058;28;20167;-63
2024/01/09 02:53:13;;;;;;;4.63;2.77;;;-3.50;99.90;;;;;;5021762;28;20037;-64
2024/01/09 02:55:39;;;;;;;5.03;2.87;;;-3.50;99.90;;;;;;5019419;28;20474;-64
2024/01/09 02:58:04;;;;;;;4.13;3.33;;;-3.60;99.90;;;;;;5018751;28;20044;-63
2024/01/09 03:00:30;;;;;;;3.90;2.83;;;-3.60;99.90;;;;;;5020694;28;20053;-64
2024/01/09 03:02:56;;;;;;;4.72;3.05;;;-3.60;99.90;;;;;;5035541;28;20285;-64
2024/01/09 03:05:21;;;;;;;5.80;3.10;;;-3.60;99.90;;;;;;5019900;28;20049;-65
2024/01/09 03:07:47;;;;;;;5.33;4.57;;;-3.60;99.90;;;;;;5018020;28;20033;-63
2024/01/09 03:10:13;;;;;;;4.40;3.40;;;-3.70;99.90;;;;;;5027724;28;20044;-62
2024/01/09 03:12:38;;;;;;;6.43;3.53;;;-3.70;99.90;;;;;;5026642;28;20037;-65
2024/01/09 03:15:04;;;;;;;5.43;3.13;;;-3.70;99.90;;;;;;5024958;28;20057;-65
2024/01/09 03:17:30;;;;;;;5.70;4.10;;;-3.70;99.90;;;;;;5021892;28;20410;-62
2024/01/09 03:19:56;;;;;;;5.83;3.30;;;-3.70;99.90;;;;;;5021765;28;20043;-64
2024/01/09 03:22:21;;;;;;;6.47;3.53;;;-3.70;99.90;;;;;;5021410;28;20125;-63
2024/01/09 03:24:47;;;;;;;4.67;3.23;;;-3.70;99.90;;;;;;5019821;28;20038;-63
2024/01/09 03:27:12;;;;;;;3.67;2.73;;;-3.70;99.90;;;;;;5027228;28;20051;-64
2024/01/09 03:29:39;;;;;;;3.37;2.60;;;-3.80;99.90;;;;;;5024301;28;20041;-64
2024/01/09 03:32:05;;;;;;;;;;;-3.80;99.90;;;;;;5026244;28;20041;-65
2024/01/09 03:34:31;;;;;;;4.70;2.60;;;-3.80;99.90;;;;;;5024048;28;19916;-64
2024/01/09 03:36:56;;;;;;;4.38;3.40;;;-3.80;99.90;;;;;;5023435;28;20044;-64
2024/01/09 03:39:22;;;;;;;5.10;3.10;;;-3.80;99.90;;;;;;5022772;28;20088;-62
2024/01/09 03:41:48;;;;;;;4.07;2.93;;;-3.90;99.90;;;;;;5022558;28;20443;-64
2024/01/09 03:44:14;;;;;;;5.00;2.63;;;-3.90;99.90;;;;;;5026095;28;20069;-64
2024/01/09 03:46:40;;;;;;;6.03;3.23;;;-3.90;99.90;;;;;;5026892;28;20076;-63
2024/01/09 03:49:05;;;;;;;4.78;3.42;;;-3.90;99.90;;;;;;5027157;28;20084;-62
2024/01/09 03:51:31;;;;;;;5.20;3.20;;;-3.90;99.90;;;;;;5025159;28;20049;-64
2024/01/09 03:53:57;;;;;;;5.17;2.90;;;-3.90;99.90;;;;;;5018889;28;20033;-65
2024/01/09 03:56:24;;;;;;;3.53;3.17;;;-3.90;99.90;;;;;;5023157;28;20347;-64
2024/01/09 03:58:51;;;;;;;5.65;3.67;;;-3.90;99.90;;;;;;5023599;28;20042;-66
2024/01/09 04:01:17;;;;;;;4.97;3.55;;;-4.00;99.90;;;;;;5029462;28;20087;-65
2024/01/09 04:03:42;;;;;;;5.00;3.00;;;-4.00;99.90;;;;;;5040428;28;20037;-64
2024/01/09 04:06:08;;;;;;;9.13;3.80;;;-4.00;99.90;;;;;;5028108;28;20041;-65
2024/01/09 04:08:33;;;;;;;5.20;3.73;;;-4.00;99.90;;;;;;5028109;28;20056;-62
2024/01/09 04:11:03;;;;;;;6.73;3.70;;;-4.00;99.90;;;;;;5025370;28;20042;-64
2024/01/09 04:13:28;;;;;;;3.72;2.47;;;-4.00;99.90;;;;;;5022299;28;20044;-64
2024/01/09 04:15:54;;;;;;;5.07;3.20;;;-4.00;99.90;;;;;;5019131;28;20034;-63
2024/01/09 04:18:19;;;;;;;6.40;4.13;;;-4.00;99.90;;;;;;5025195;28;20040;-64
2024/01/09 04:20:45;;;;;;;6.53;2.90;;;-4.10;99.90;;;;;;5021493;28;20045;-64
2024/01/09 04:23:11;;;;;;;6.13;3.33;;;-4.10;99.90;;;;;;5027120;28;20096;-64
2024/01/09 04:25:36;;;;;;;6.57;4.70;;;-4.10;99.90;;;;;;5032258;28;20044;-62
2024/01/09 04:28:02;;;;;;;6.13;3.87;;;-4.10;99.90;;;;;;5031259;28;20037;-62
2024/01/09 04:30:28;;;;;;;5.80;3.97;;;-4.10;99.90;;;;;;5031551;28;20033;-64
2024/01/09 04:32:53;;;;;;;6.30;3.33;;;-4.10;99.90;;;;;;5021170;28;20342;-64
2024/01/09 04:35:19;;;;;;;5.00;3.67;;;-4.10;99.90;;;;;;5022165;28;20422;-63
2024/01/09 04:37:45;;;;;;;6.10;3.70;;;-4.20;99.90;;;;;;5021956;28;20410;-64
2024/01/09 04:40:10;;;;;;;5.73;3.30;;;-4.10;99.90;;;;;;5022588;28;20049;-64
2024/01/09 04:42:36;;;;;;;5.25;3.80;;;-4.20;99.90;;;;;;5021766;28;20042;-63
2024/01/09 04:45:02;;;;;;;5.70;4.00;;;-4.20;99.90;;;;;;5024657;28;20049;-63
2024/01/09 04:47:27;;;;;;;6.37;3.77;;;-4.20;99.90;;;;;;5022870;28;20071;-64
2024/01/09 04:49:53;;;;;;;7.90;3.80;;;-4.20;99.90;;;;;;5021753;28;20595;-63
2024/01/09 04:52:18;;;;;;;6.43;4.40;;;-4.20;99.90;;;;;;5023517;28;20383;-63
2024/01/09 04:54:44;;;;;;;6.07;3.50;;;-4.20;99.90;;;;;;5018944;28;20516;-63
2024/01/09 04:57:10;;;;;;;5.05;3.50;;;-4.20;99.90;;;;;;5023563;28;20041;-64
2024/01/09 04:59:35;;;;;;;6.30;3.00;;;-4.20;99.90;;;;;;5025120;28;20041;-64
2024/01/09 05:02:02;;;;;;;10.30;4.93;;;-4.20;99.90;;;;;;5024435;28;20534;-63
2024/01/09 05:04:30;;;;;;;11.20;4.15;;;-4.20;99.90;;;;;;5022456;28;20295;-63
2024/01/09 05:06:56;;;;;;;3.83;3.05;;;-4.20;99.90;;;;;;5026021;28;20083;-63
2024/01/09 05:09:21;;;;;;;5.07;4.13;;;-4.30;99.90;;;;;;5028143;28;20037;-64
2024/01/09 05:11:47;;;;;;;6.77;3.87;;;-4.30;99.90;;;;;;5024877;28;20693;-64
2024/01/09 05:14:12;;;;;;;5.90;3.97;;;-4.30;99.90;;;;;;5025794;28;20029;-63
2024/01/09 05:16:38;;;;;;;4.73;3.47;;;-4.30;99.90;;;;;;5017286;28;20037;-65
2024/01/09 05:19:04;;;;;;;5.83;3.70;;;-4.30;99.90;;;;;;5023495;28;20739;-65
2024/01/09 05:21:30;;;;;;;4.00;2.87;;;-4.40;99.90;;;;;;5019103;28;20505;-65
2024/01/09 05:23:56;;;;;;;;;;;-4.40;99.90;;;;;;5019798;28;20046;-64
2024/01/09 05:26:22;;;;;;;7.18;3.88;;;-4.40;99.90;;;;;;5021532;28;19917;-65
2024/01/09 05:28:47;;;;;;;8.63;4.03;;;-4.40;99.90;;;;;;5022509;28;20038;-64
2024/01/09 05:31:13;;;;;;;7.85;5.07;;;-4.40;99.90;;;;;;5022874;28;20502;-63
2024/01/09 05:33:39;;;;;;;6.75;3.85;;;-4.40;99.90;;;;;;5021884;28;20445;-65
2024/01/09 05:36:06;;;;;;;7.00;4.10;;;-4.40;99.90;;;;;;5022729;28;20477;-64
2024/01/09 05:38:32;;;;;;;5.47;3.30;;;-4.40;99.90;;;;;;5023894;28;20108;-64
2024/01/09 05:40:57;;;;;;;4.28;3.72;;;-4.50;99.90;;;;;;5022009;28;20121;-62
2024/01/09 05:43:23;;;;;;;4.23;3.60;;;-4.50;99.90;;;;;;5020185;28;20057;-62
2024/01/09 05:45:49;;;;;;;4.03;3.60;;;-4.50;99.90;;;;;;5025668;28;20292;-65
2024/01/09 05:48:14;;;;;;;5.17;4.10;;;-4.50;99.90;;;;;;5023455;28;20315;-64
2024/01/09 05:50:40;;;;;;;9.90;3.00;;;-4.50;99.90;;;;;;5016284;28;20045;-64
2024/01/09 05:53:07;;;;;;;5.80;3.77;;;-4.50;99.90;;;;;;5021012;28;20049;-65
2024/01/09 05:55:33;;;;;;;6.82;3.75;;;-4.60;99.90;;;;;;5022907;28;20040;-65
2024/01/09 05:57:59;;;;;;;5.43;3.50;;;-4.60;99.90;;;;;;5019922;28;20034;-64
2024/01/09 06:00:24;;;;;;;5.63;4.17;;;-4.60;99.90;;;;;;5036025;28;20041;-62
2024/01/09 06:02:51;;;;;;;6.35;3.40;;;-4.60;99.90;;;;;;5022802;28;21082;-64
2024/01/09 06:05:17;;;;;;;;;;;-4.60;99.90;;;;;;5021691;28;20034;-62
2024/01/09 06:07:42;;;;;;;4.47;2.42;;;-4.60;99.90;;;;;;5023302;28;19927;-64
2024/01/09 06:10:08;;;;;;;9.10;4.73;;;-4.60;99.90;;;;;;5022947;28;20092;-64
2024/01/09 06:12:34;;;;;;;4.68;3.15;;;-4.60;99.90;;;;;;5020912;28;20307;-64
2024/01/09 06:14:59;;;;;;;6.37;3.73;;;-4.60;99.90;;;;;;5037601;28;20041;-64
2024/01/09 06:17:25;;;;;;;6.33;3.67;;;-4.70;99.90;;;;;;5022648;28;20333;-62
2024/01/09 06:19:51;;;;;;;7.27;4.70;;;-4.60;99.90;;;;;;5019969;28;20057;-63
2024/01/09 06:22:16;;;;;;;5.60;3.30;;;-4.70;99.90;;;;;;5023305;28;20128;-65
2024/01/09 06:24:42;;;;;;;7.40;3.97;;;-4.70;99.90;;;;;;5020665;28;20084;-64
2024/01/09 06:27:07;;;;;;;6.03;3.67;;;-4.70;99.90;;;;;;5022795;28;20044;-63
2024/01/09 06:29:33;;;;;;;5.13;3.90;;;-4.70;99.90;;;;;;5018314;28;20095;-64
2024/01/09 06:31:59;;;;;;;6.47;3.87;;;-4.70;99.90;;;;;;5021615;28;20095;-64
2024/01/09 06:34:24;;;;;;;5.67;3.70;;;-4.70;99.90;;;;;;5024792;28;20124;-63
2024/01/09 06:36:50;;;;;;;4.70;3.20;;;-4.80;99.90;;;;;;5020341;28;20929;-61
2024/01/09 06:39:16;;;;;;;6.70;3.50;;;-4.70;99.90;;;;;;5027511;28;21107;-64
2024/01/09 06:41:42;;;;;;;6.25;3.28;;;-4.80;99.90;;;;;;5020774;28;20034;-64
2024/01/09 06:44:08;;;;;;;4.85;3.80;;;-4.80;99.90;;;;;;5022221;28;20045;-63
2024/01/09 06:46:33;;;;;;;5.93;3.50;;;-4.80;99.90;;;;;;5025324;28;20029;-62
2024/01/09 06:48:59;;;;;;;6.70;3.50;;;-4.80;99.90;;;;;;5025642;28;20049;-64
2024/01/09 06:51:25;;;;;;;4.80;3.00;;;-4.80;99.90;;;;;;5018963;28;20045;-63
2024/01/09 06:53:51;;;;;;;6.45;3.58;;;-4.80;99.90;;;;;;5023606;28;20581;-64
2024/01/09 06:56:17;;;;;;;5.43;3.53;;;-4.80;99.90;;;;;;5021601;28;20109;-63
2024/01/09 06:58:45;;;;;;;3.83;2.97;;;-4.80;99.90;;;;;;5019442;28;20494;-63
2024/01/09 07:01:11;;;;;;;6.70;2.97;;;-4.80;99.90;;;;;;5010673;28;20977;-65
2024/01/09 07:03:36;;;;;;;7.68;3.47;;;-4.90;99.90;;;;;;5016384;28;20151;-63
2024/01/09 07:06:02;;;;;;;4.73;3.30;;;-4.80;99.90;;;;;;5021282;28;20041;-64
2024/01/09 07:08:28;;;;;;;4.55;3.50;;;-4.90;99.90;;;;;;5024428;28;20077;-64
2024/01/09 07:10:54;;;;;;;4.50;3.37;;;-4.90;99.90;;;;;;5022970;28;20143;-64
2024/01/09 07:13:21;;;;;;;6.68;3.78;;;-4.80;99.90;;;;;;5023184;28;20049;-65
2024/01/09 07:15:46;;;;;;;4.85;3.13;;;-4.80;99.90;;;;;;5022862;28;20107;-63
2024/01/09 07:18:12;;;;;;;4.90;2.97;;;-4.90;99.90;;;;;;5024038;28;20033;-64
2024/01/09 07:20:37;;;;;;;6.50;3.67;;;-4.90;99.90;;;;;;5023209;28;20041;-64
2024/01/09 07:23:03;;;;;;;4.35;3.28;;;-4.90;99.90;;;;;;5025363;28;20042;-62
2024/01/09 07:25:29;;;;;;;4.03;2.55;;;-4.90;99.90;;;;;;5043685;28;20044;-64
2024/01/09 07:27:54;;;;;;;5.67;3.47;;;-4.90;99.90;;;;;;5020547;28;20045;-65
2024/01/09 07:30:20;;;;;;;6.33;3.90;;;-4.90;99.90;;;;;;5024338;28;20049;-64
2024/01/09 07:32:46;;;;;;;4.37;2.93;;;-4.90;99.90;;;;;;5024572;28;20083;-64
2024/01/09 07:35:11;;;;;;;5.43;3.70;;;-4.90;99.90;;;;;;5024206;28;20802;-65
2024/01/09 07:37:37;;;;;;;6.17;3.93;;;-4.90;99.90;;;;;;5023572;28;20311;-63
2024/01/09 07:40:04;;;;;;;3.50;2.67;;;-4.90;99.90;;;;;;5027554;28;20049;-64
2024/01/09 07:42:30;;;;;;;5.72;3.38;;;-4.90;99.90;;;;;;5021723;28;20411;-63
2024/01/09 07:44:56;;;;;;;5.97;3.63;;;-4.90;99.90;;;;;;5022590;28;20087;-63
2024/01/09 07:47:22;;;;;;;4.93;3.20;;;-4.90;99.90;;;;;;5022955;28;20587;-65
2024/01/09 07:49:48;;;;;;;4.43;2.95;;;-4.90;99.90;;;;;;5015170;28;20038;-64
2024/01/09 07:52:14;;;;;;;4.50;3.00;;;-4.90;99.90;;;;;;5013994;28;20034;-64
2024/01/09 07:54:42;;;;;;;7.17;4.23;;;-4.90;99.90;;;;;;5018886;28;20365;-64
2024/01/09 07:57:08;;;;;;;6.22;3.55;;;-4.80;99.90;;;;;;5012828;28;20029;-64
2024/01/09 07:59:34;;;;;;;4.27;3.27;;;-4.70;99.90;;;;;;5016700;28;20044;-63
2024/01/09 08:02:01;;;;;;;8.13;4.23;;;-4.60;99.90;;;;;;5013635;28;20045;-67
2024/01/09 08:04:27;;;;;;;7.68;6.43;;;-4.40;99.90;;;;;;5021682;28;20052;-64
2024/01/09 08:06:54;;;;;;;;;;;-3.90;99.90;;;;;;5020503;28;20048;-62
2024/01/09 08:09:20;;;;;;;3.88;3.00;;;-3.10;99.90;;;;;;5017852;28;19947;-63
2024/01/09 08:11:46;;;;;;;4.63;3.22;;;-2.30;99.90;;;;;;5021725;28;20129;-64
2024/01/09 08:14:15;;;;;;;5.43;3.78;;;-1.70;99.90;;;;;;5034283;28;20037;-65
2024/01/09 08:16:41;;;;;;;4.22;3.33;;;-1.30;99.90;;;;;;5020242;28;20040;-62
2024/01/09 08:19:07;;;;;;;2.95;2.35;;;-0.60;99.90;;;;;;5018136;28;20025;-65
2024/01/09 08:21:35;;;;;;;6.15;2.72;;;0.10;99.90;;;;;;5021990;28;20787;-64
2024/01/09 08:24:01;;;;;;;4.32;3.05;;;0.70;99.90;;;;;;5018845;28;20112;-65
2024/01/09 08:26:27;;;;;;;6.53;2.60;;;1.40;99.90;;;;;;5017607;28;20407;-64
2024/01/09 08:28:52;;;;;;;3.70;2.57;;;1.80;99.40;;;;;;5016025;28;20041;-65
2024/01/09 08:31:18;;;;;;;6.13;2.97;;;2.50;98.10;;;;;;5015075;28;20034;-66
2024/01/09 08:33:44;;;;;;;3.50;2.83;;;2.90;96.90;;;;;;5014047;28;20029;-65
2024/01/09 08:36:09;;;;;;;5.37;2.43;;;3.50;96.10;;;;;;5015371;28;20431;-64
2024/01/09 08:38:35;;;;;;;5.03;3.10;;;3.90;95.30;;;;;;5012402;28;20084;-64
2024/01/09 08:41:02;;;;;;;4.70;2.60;;;4.40;94.00;;;;;;5014069;28;20172;-66
2024/01/09 08:43:28;;;;;;;8.32;2.85;;;4.70;92.60;;;;;;5018085;28;20538;-64
2024/01/09 08:45:54;;;;;;;13.05;3.38;;;5.10;91.80;;;;;;5019511;28;20056;-64
2024/01/09 08:48:20;;;;;;;3.43;1.93;;;5.30;91.00;;;;;;5012929;28;20067;-65
2024/01/09 08:50:45;;;;;;;3.83;2.27;;;5.80;90.90;;;;;;5013584;28;20157;-63
2024/01/09 08:53:11;;;;;;;3.05;2.65;;;6.20;89.20;;;;;;5027033;28;20033;-65
2024/01/09 08:55:37;;;;;;;3.85;2.47;;;6.50;85.70;;;;;;5012749;28;20378;-66
2024/01/09 08:58:03;;;;;;;4.35;2.05;;;6.70;81.40;;;;;;5014777;28;20048;-65
2024/01/09 09:00:29;;;;;;;2.55;2.35;;;7.10;81.60;;;;;;5019328;28;20164;-65
2024/01/09 09:02:55;;;;;;;2.73;1.83;;;7.50;81.20;;;;;;5019825;28;20081;-63
2024/01/09 09:05:20;;;;;;;3.92;2.28;;;8.00;79.60;;;;;;5020791;28;20300;-64
2024/01/09 09:07:46;;;;;;;2.40;2.20;;;8.40;77.70;;;;;;5020447;28;20091;-64
2024/01/09 09:10:12;;;;;;;5.07;2.90;;;8.90;76.10;;;;;;5020769;28;20448;-64
2024/01/09 09:12:37;;;;;;;6.93;2.20;;;9.20;73.90;;;;;;5037081;28;20107;-65
2024/01/09 09:15:03;;;;;;;6.43;2.80;;;9.70;71.60;;;;;;5014611;28;20064;-64
2024/01/09 09:17:30;;;;;;;3.45;1.55;;;10.10;69.00;;;;;;5019265;28;20037;-65
2024/01/09 09:19:57;;;;;;;4.05;2.58;;;10.40;69.50;;;;;;5017559;28;20072;-65
2024/01/09 09:22:25;;;;;;;2.47;1.75;;;10.80;67.40;;;;;;5014892;28;20523;-65
2024/01/09 09:24:52;;;;;;;4.63;2.55;;;11.10;65.50;;;;;;5017616;28;20080;-64
2024/01/09 09:27:18;;;;;;;2.95;2.28;;;11.40;64.60;;;;;;5020893;28;20039;-66
2024/01/09 09:29:44;;;;;;;3.53;2.10;;;11.70;62.80;;;;;;5017707;28;20509;-66
2024/01/09 09:32:10;;;;;;;2.75;2.20;;;11.90;61.70;;;;;;5017149;28;20072;-65
2024/01/09 09:34:39;;;;;;;3.17;2.20;;;12.10;60.20;;;;;;5021121;28;20409;-65
2024/01/09 09:37:04;;;;;;;3.58;2.28;;;12.30;59.70;;;;;;5017006;28;20164;-65
2024/01/09 09:39:30;;;;;;;2.95;2.53;;;12.40;58.70;;;;;;5016673;28;20462;-65
2024/01/09 09:41:57;;;;;;;2.70;2.22;;;12.60;58.80;;;;;;5014878;28;20037;-64
2024/01/09 09:44:24;;;;;;;4.18;2.65;;;12.90;58.50;;;;;;5013341;28;20449;-66
2024/01/09 09:46:51;;;;;;;2.70;2.08;;;13.20;57.30;;;;;;5015699;28;20683;-65
2024/01/09 09:49:22;;;;;;;3.25;2.10;;;13.20;56.50;;;;;;5014711;28;20030;-65
2024/01/09 09:51:49;;;;;;;6.65;2.85;;;13.10;55.90;;;;;;5014989;28;20099;-65
2024/01/09 09:54:15;;;;;;;2.10;1.90;;;13.30;56.00;;;;;;5017958;28;20487;-66
2024/01/09 09:56:41;;;;;;;2.47;1.63;;;13.50;54.90;;;;;;5015475;28;20026;-64
2024/01/09 09:59:10;;;;;;;2.88;2.25;;;13.70;54.70;;;;;;5012921;28;20497;-65
2024/01/09 10:01:37;;;;;;;5.10;2.00;;;13.90;55.40;;;;;;5014707;28;20034;-65
2024/01/09 10:04:29;;;;;;;3.30;2.13;;;14.10;53.50;;;;;;5012923;28;20638;-64
2024/01/09 10:06:59;;;;;;;4.57;2.22;;;13.20;51.20;;;;;;5004431;28;20057;-64
2024/01/09 10:09:35;;;;;;;4.70;2.58;;;11.90;51.50;;;;;;5016220;28;20041;-65
2024/01/09 10:12:01;;;;;;;3.10;2.40;;;10.80;52.80;;;;;;5013416;28;20046;-63
2024/01/09 10:14:27;;;;;;;1.85;1.55;;;10.80;54.40;;;;;;5015918;28;20036;-65
2024/01/09 10:16:54;;;;;;;2.92;1.90;;;10.80;53.30;;;;;;5016402;28;20114;-63
2024/01/09 10:19:24;;;;;;;3.30;1.92;;;11.10;53.10;;;;;;5014561;28;20033;-64
2024/01/09 10:21:50;;;;;;;3.55;1.52;;;11.70;53.70;;;;;;5017421;28;20418;-64
2024/01/09 10:24:16;;;;;;;;;;;12.20;53.70;;;;;;5018127;28;20041;-66
2024/01/09 10:26:42;;;;;;;3.20;2.15;;;12.50;51.50;;;;;;5017671;28;19917;-63
2024/01/09 10:29:09;;;;;;;3.47;2.13;;;12.80;53.00;;;;;;5017170;28;20045;-64
2024/01/09 10:31:35;;;;;;;4.18;2.28;;;12.80;51.90;;;;;;5015898;28;20136;-64
2024/01/09 10:34:00;;;;;;;3.33;1.98;;;12.30;51.50;;;;;;5018509;28;20101;-64
2024/01/09 10:36:27;;;;;;;2.30;1.63;;;11.60;51.60;;;;;;5012364;28;20053;-64
2024/01/09 10:39:04;;;;;;;5.35;2.05;;;10.80;51.80;;;;;;5015370;28;20494;-62
2024/01/09 10:41:30;;;;;;;3.00;1.63;;;10.60;52.50;;;;;;5015620;28;20069;-65
2024/01/09 10:43:56;;;;;;;5.35;2.30;;;10.90;53.20;;;;;;5012608;28;20769;-64
2024/01/09 10:46:25;;;;;;;2.60;1.60;;;11.30;51.90;;;;;;5033210;28;20083;-63
2024/01/09 10:48:52;;;;;;;4.07;1.95;;;11.90;52.30;;;;;;5013640;28;20068;-65
2024/01/09 10:51:18;;;;;;;3.05;1.98;;;12.60;51.90;;;;;;5012655;28;20076;-64
2024/01/09 10:53:49;;;;;;;5.07;1.98;;;13.20;51.20;;;;;;5014861;28;20950;-63
2024/01/09 10:56:18;;;;;;;3.03;1.70;;;13.60;50.70;;;;;;5028849;28;20099;-62
2024/01/09 10:58:46;;;;;;;4.43;1.50;;;13.80;49.90;;;;;;5015140;28;20486;-64
2024/01/09 11:01:15;;;;;;;2.83;1.27;;;14.00;50.20;;;;;;5015211;28;20494;-64
2024/01/09 11:03:42;;;;;;;2.92;2.08;;;14.00;50.70;;;;;;5015531;28;20049;-62
2024/01/09 11:06:09;;;;;;;3.40;1.25;;;13.70;49.40;;;;;;5013772;28;20045;-63
2024/01/09 11:08:35;;;;;;;2.05;1.50;;;13.10;49.20;;;;;;4996012;28;20042;-62
2024/01/09 11:11:08;;;;;;;3.65;1.83;;;12.20;48.80;;;;;;5015621;28;20056;-64
2024/01/09 11:13:38;;;;;;;2.75;1.17;;;11.40;49.30;;;;;;5015462;28;20405;-62
2024/01/09 11:16:06;;;;;;;2.58;1.77;;;10.80;49.50;;;;;;5015309;28;20159;-63
2024/01/09 11:18:34;;;;;;;4.43;2.20;;;10.60;49.70;;;;;;5011460;28;20117;-63
2024/01/09 11:21:06;;;;;;;2.55;1.80;;;11.00;50.00;;;;;;5024498;28;20037;-62
2024/01/09 11:23:51;;;;;;;3.28;1.40;;;12.00;50.10;;;;;;5012147;28;20041;-63
2024/01/09 11:26:18;;;;;;;2.25;1.50;;;13.00;48.80;;;;;;5016257;28;20068;-62
2024/01/09 11:28:45;;;;;;;2.50;1.50;;;13.90;48.80;;;;;;5011737;28;20044;-62
2024/01/09 11:31:20;;;;;;;2.97;1.83;;;14.70;48.40;;;;;;5029558;28;20045;-64
2024/01/09 11:33:51;;;;;;;2.38;1.77;;;15.10;47.20;;;;;;5011215;28;20113;-62
2024/01/09 11:36:37;;;;;;;2.17;1.50;;;15.80;47.40;;;;;;5019189;28;20450;-64
2024/01/09 11:39:04;;;;;;;5.22;1.92;;;16.70;47.20;;;;;;5016803;28;20081;-64
2024/01/09 11:41:35;;;;;;;4.35;1.42;;;17.10;46.10;;;;;;5019492;28;20045;-64
2024/01/09 11:44:06;;;;;;;4.07;1.30;;;17.60;46.40;;;;;;5013093;28;20679;-63
2024/01/09 11:46:36;;;;;;;2.00;1.30;;;17.80;46.30;;;;;;5015828;28;20049;-63
2024/01/09 11:49:03;;;;;;;1.75;1.58;;;18.10;46.20;;;;;;5015133;28;20558;-63
2024/01/09 11:51:30;;;;;;;2.13;1.23;;;18.70;46.20;;;;;;5020999;28;20049;-63
2024/01/09 11:54:00;;;;;;;1.70;1.10;;;19.10;45.30;;;;;;5035031;28;20094;-62
2024/01/09 11:56:27;;;;;;;2.92;1.23;;;19.30;44.60;;;;;;5023175;28;20043;-62
2024/01/09 11:58:53;;;;;;;1.92;1.00;;;19.20;44.00;;;;;;5015243;28;20517;-63
2024/01/09 12:01:20;;;;;;;1.85;1.02;;;19.40;44.80;;;;;;5018327;28;20390;-63
2024/01/09 12:03:52;;;;;;;1.80;1.33;;;19.30;44.00;;;;;;5019056;28;20049;-64
2024/01/09 12:06:19;;;;;;;1.95;1.30;;;19.60;44.00;;;;;;5021927;28;20168;-63
2024/01/09 12:08:45;;;;;;;2.40;1.20;;;20.00;43.90;;;;;;5020200;28;20404;-64
2024/01/09 12:11:11;;;;;;;4.70;1.65;;;20.20;44.00;;;;;;5018935;28;20529;-63
2024/01/09 12:13:37;;;;;;;2.40;1.00;;;20.00;43.60;;;;;;5019026;28;20033;-65
2024/01/09 12:16:18;;;;;;;1.10;0.70;;;19.70;43.20;;;;;;5017079;28;20042;-65
2024/01/09 12:18:54;;;;;;;1.48;0.93;;;19.30;42.70;;;;;;5015861;28;20037;-63
2024/01/09 12:21:22;;;;;;;1.30;0.68;;;19.00;42.10;;;;;;5017776;28;20052;-65
2024/01/09 12:23:48;;;;;;;2.70;0.93;;;18.50;42.50;;;;;;5018893;28;20065;-63
2024/01/09 12:26:15;;;;;;;3.15;1.13;;;17.70;42.70;;;;;;5014796;28;20091;-63
2024/01/09 12:28:41;;;;;;;1.05;0.95;;;16.70;43.60;;;;;;5017042;28;20079;-63
2024/01/09 12:31:08;;;;;;;3.53;1.15;;;15.90;43.60;;;;;;5016618;28;20076;-65
2024/01/09 12:33:34;;;;;;;4.38;1.20;;;15.10;43.40;;;;;;5017951;28;20660;-63
2024/01/09 12:36:00;;;;;;;2.42;1.50;;;14.10;44.00;;;;;;5012006;28;20137;-64
2024/01/09 12:38:26;;;;;;;1.80;1.15;;;13.30;44.10;;;;;;5017183;28;20530;-63
2024/01/09 12:41:02;;;;;;;;;;;12.40;44.50;;;;;;5032914;28;20444;-64
2024/01/09 12:43:28;;;;;;;1.65;0.77;;;11.70;44.80;;;;;;5014753;28;19956;-62
2024/01/09 12:45:56;;;;;;;2.35;1.13;;;11.10;46.10;;;;;;5019547;28;20051;-64